sensor_id;sensor_type;location;lat;lon;timestamp;temperature;humidity
68251;DHT22;55066;51.560;4.642;2022-12-20T00:01:59;9.83;97.47
68251;DHT22;55066;51.560;4.642;2022-12-20T00:04:25;9.90;97.37
68251;DHT22;55066;51.560;4.642;2022-12-20T00:06:50;9.90;97.37
68251;DHT22;55066;51.560;4.642;2022-12-20T00:09:16;9.99;97.25
68251;DHT22;55066;51.560;4.642;2022-12-20T00:11:41;10.02;97.09
68251;DHT22;55066;51.560;4.642;2022-12-20T00:14:08;10.13;96.41
68251;DHT22;55066;51.560;4.642;2022-12-20T00:16:34;10.07;97.00
68251;DHT22;55066;51.560;4.642;2022-12-20T00:19:02;10.11;96.95
68251;DHT22;55066;51.560;4.642;2022-12-20T00:21:29;10.09;96.95
68251;DHT22;55066;51.560;4.642;2022-12-20T00:23:56;10.07;96.86
68251;DHT22;55066;51.560;4.642;2022-12-20T00:26:24;10.02;97.94
68251;DHT22;55066;51.560;4.642;2022-12-20T00:28:49;10.04;98.26
68251;DHT22;55066;51.560;4.642;2022-12-20T00:31:16;10.02;98.61
68251;DHT22;55066;51.560;4.642;2022-12-20T00:33:45;9.92;99.14
68251;DHT22;55066;51.560;4.642;2022-12-20T00:36:11;9.71;99.99
68251;DHT22;55066;51.560;4.642;2022-12-20T00:38:37;9.62;99.99
68251;DHT22;55066;51.560;4.642;2022-12-20T00:43:30;9.44;99.99
68251;DHT22;55066;51.560;4.642;2022-12-20T00:45:55;9.37;99.99
68251;DHT22;55066;51.560;4.642;2022-12-20T00:48:21;9.35;99.99
68251;DHT22;55066;51.560;4.642;2022-12-20T00:50:47;9.28;99.99
68251;DHT22;55066;51.560;4.642;2022-12-20T00:53:12;9.18;99.99
68251;DHT22;55066;51.560;4.642;2022-12-20T00:55:42;9.17;99.99
68251;DHT22;55066;51.560;4.642;2022-12-20T00:58:07;9.17;99.99
68251;DHT22;55066;51.560;4.642;2022-12-20T01:00:33;9.16;99.99
68251;DHT22;55066;51.560;4.642;2022-12-20T01:02:58;9.24;99.99
68251;DHT22;55066;51.560;4.642;2022-12-20T01:05:24;9.18;99.99
68251;DHT22;55066;51.560;4.642;2022-12-20T01:07:49;9.24;99.99
68251;DHT22;55066;51.560;4.642;2022-12-20T01:10:14;9.27;99.99
68251;DHT22;55066;51.560;4.642;2022-12-20T01:12:40;9.24;99.99
68251;DHT22;55066;51.560;4.642;2022-12-20T01:15:06;9.21;99.99
68251;DHT22;55066;51.560;4.642;2022-12-20T01:17:32;9.21;99.99
68251;DHT22;55066;51.560;4.642;2022-12-20T01:19:58;9.08;99.99
68251;DHT22;55066;51.560;4.642;2022-12-20T01:22:23;9.10;99.99
68251;DHT22;55066;51.560;4.642;2022-12-20T01:24:48;9.07;99.99
68251;DHT22;55066;51.560;4.642;2022-12-20T01:27:14;9.20;99.99
68251;DHT22;55066;51.560;4.642;2022-12-20T01:29:39;9.10;99.99
68251;DHT22;55066;51.560;4.642;2022-12-20T01:32:05;9.18;99.99
68251;DHT22;55066;51.560;4.642;2022-12-20T01:34:30;9.21;99.99
68251;DHT22;55066;51.560;4.642;2022-12-20T01:36:55;9.14;99.99
68251;DHT22;55066;51.560;4.642;2022-12-20T01:39:21;9.13;99.99
68251;DHT22;55066;51.560;4.642;2022-12-20T01:41:47;9.11;99.99
68251;DHT22;55066;51.560;4.642;2022-12-20T01:46:41;9.07;99.99
68251;DHT22;55066;51.560;4.642;2022-12-20T01:54:51;8.91;99.99
68251;DHT22;55066;51.560;4.642;2022-12-20T01:57:21;8.80;99.99
68251;DHT22;55066;51.560;4.642;2022-12-20T01:59:49;8.77;99.99
68251;DHT22;55066;51.560;4.642;2022-12-20T02:02:15;8.72;99.99
68251;DHT22;55066;51.560;4.642;2022-12-20T02:04:40;8.73;99.99
68251;DHT22;55066;51.560;4.642;2022-12-20T02:07:07;8.58;99.99
68251;DHT22;55066;51.560;4.642;2022-12-20T02:09:36;8.68;99.99
68251;DHT22;55066;51.560;4.642;2022-12-20T02:12:16;8.68;99.99
68251;DHT22;55066;51.560;4.642;2022-12-20T02:17:57;8.79;99.99
68251;DHT22;55066;51.560;4.642;2022-12-20T02:23:08;8.79;99.99
68251;DHT22;55066;51.560;4.642;2022-12-20T02:25:58;8.77;99.99
68251;DHT22;55066;51.560;4.642;2022-12-20T02:31:12;8.86;99.99
68251;DHT22;55066;51.560;4.642;2022-12-20T02:33:42;8.68;99.99
68251;DHT22;55066;51.560;4.642;2022-12-20T02:36:13;8.68;99.99
68251;DHT22;55066;51.560;4.642;2022-12-20T02:38:39;8.70;99.99
68251;DHT22;55066;51.560;4.642;2022-12-20T02:41:10;8.69;99.99
68251;DHT22;55066;51.560;4.642;2022-12-20T02:43:40;8.79;99.99
68251;DHT22;55066;51.560;4.642;2022-12-20T02:46:25;8.75;99.99
68251;DHT22;55066;51.560;4.642;2022-12-20T02:48:54;8.72;99.99
68251;DHT22;55066;51.560;4.642;2022-12-20T02:51:22;8.79;99.99
68251;DHT22;55066;51.560;4.642;2022-12-20T02:53:48;8.87;99.99
68251;DHT22;55066;51.560;4.642;2022-12-20T02:56:27;8.80;99.99
68251;DHT22;55066;51.560;4.642;2022-12-20T02:59:00;8.83;99.99
68251;DHT22;55066;51.560;4.642;2022-12-20T03:01:30;8.93;99.99
68251;DHT22;55066;51.560;4.642;2022-12-20T03:03:57;8.89;99.99
68251;DHT22;55066;51.560;4.642;2022-12-20T03:06:23;8.97;99.99
68251;DHT22;55066;51.560;4.642;2022-12-20T03:08:49;8.99;99.99
68251;DHT22;55066;51.560;4.642;2022-12-20T03:11:15;8.87;99.99
68251;DHT22;55066;51.560;4.642;2022-12-20T03:13:41;8.94;99.99
68251;DHT22;55066;51.560;4.642;2022-12-20T03:16:08;9.04;99.99
68251;DHT22;55066;51.560;4.642;2022-12-20T03:18:35;8.94;99.99
68251;DHT22;55066;51.560;4.642;2022-12-20T03:21:00;8.90;99.99
68251;DHT22;55066;51.560;4.642;2022-12-20T03:23:25;8.93;99.99
68251;DHT22;55066;51.560;4.642;2022-12-20T03:25:51;8.94;99.99
68251;DHT22;55066;51.560;4.642;2022-12-20T03:28:26;8.94;99.99
68251;DHT22;55066;51.560;4.642;2022-12-20T03:30:52;8.90;99.99
68251;DHT22;55066;51.560;4.642;2022-12-20T03:33:17;8.93;99.99
68251;DHT22;55066;51.560;4.642;2022-12-20T03:35:43;9.10;99.99
68251;DHT22;55066;51.560;4.642;2022-12-20T03:38:09;9.21;99.99
68251;DHT22;55066;51.560;4.642;2022-12-20T03:40:34;9.26;99.99
68251;DHT22;55066;51.560;4.642;2022-12-20T03:43:00;9.20;99.99
68251;DHT22;55066;51.560;4.642;2022-12-20T03:45:26;9.21;99.99
68251;DHT22;55066;51.560;4.642;2022-12-20T03:47:51;9.27;99.99
68251;DHT22;55066;51.560;4.642;2022-12-20T03:50:17;9.26;99.99
68251;DHT22;55066;51.560;4.642;2022-12-20T03:52:42;9.37;99.99
68251;DHT22;55066;51.560;4.642;2022-12-20T03:55:08;9.26;99.99
68251;DHT22;55066;51.560;4.642;2022-12-20T03:57:39;9.31;99.99
68251;DHT22;55066;51.560;4.642;2022-12-20T04:00:18;9.32;99.99
68251;DHT22;55066;51.560;4.642;2022-12-20T04:02:47;9.27;99.99
68251;DHT22;55066;51.560;4.642;2022-12-20T04:05:13;9.30;99.99
68251;DHT22;55066;51.560;4.642;2022-12-20T04:07:38;9.28;99.99
68251;DHT22;55066;51.560;4.642;2022-12-20T04:10:06;9.34;99.99
68251;DHT22;55066;51.560;4.642;2022-12-20T04:12:32;9.35;99.99
68251;DHT22;55066;51.560;4.642;2022-12-20T04:14:57;9.24;99.99
68251;DHT22;55066;51.560;4.642;2022-12-20T04:17:23;9.32;99.99
68251;DHT22;55066;51.560;4.642;2022-12-20T04:19:48;9.34;99.99
68251;DHT22;55066;51.560;4.642;2022-12-20T04:22:15;9.38;99.99
68251;DHT22;55066;51.560;4.642;2022-12-20T04:24:57;9.41;99.99
68251;DHT22;55066;51.560;4.642;2022-12-20T04:27:26;9.41;99.99
68251;DHT22;55066;51.560;4.642;2022-12-20T04:29:54;9.46;99.99
68251;DHT22;55066;51.560;4.642;2022-12-20T04:32:20;9.46;99.99
68251;DHT22;55066;51.560;4.642;2022-12-20T04:34:47;9.41;99.99
68251;DHT22;55066;51.560;4.642;2022-12-20T04:37:12;9.48;99.99
68251;DHT22;55066;51.560;4.642;2022-12-20T04:39:49;9.65;99.99
68251;DHT22;55066;51.560;4.642;2022-12-20T04:42:44;9.58;99.99
68251;DHT22;55066;51.560;4.642;2022-12-20T04:45:11;9.58;99.99
68251;DHT22;55066;51.560;4.642;2022-12-20T04:47:37;9.55;99.99
68251;DHT22;55066;51.560;4.642;2022-12-20T04:50:06;9.51;99.99
68251;DHT22;55066;51.560;4.642;2022-12-20T04:52:31;9.48;99.99
68251;DHT22;55066;51.560;4.642;2022-12-20T04:55:15;9.52;99.99
68251;DHT22;55066;51.560;4.642;2022-12-20T04:57:41;9.44;99.99
68251;DHT22;55066;51.560;4.642;2022-12-20T05:00:07;9.38;99.99
68251;DHT22;55066;51.560;4.642;2022-12-20T05:02:38;9.44;99.99
68251;DHT22;55066;51.560;4.642;2022-12-20T05:05:08;9.55;99.99
68251;DHT22;55066;51.560;4.642;2022-12-20T05:07:39;9.46;99.99
68251;DHT22;55066;51.560;4.642;2022-12-20T05:10:06;9.52;99.99
68251;DHT22;55066;51.560;4.642;2022-12-20T05:12:32;9.54;99.99
68251;DHT22;55066;51.560;4.642;2022-12-20T05:14:59;9.55;99.99
68251;DHT22;55066;51.560;4.642;2022-12-20T05:17:25;9.56;99.99
68251;DHT22;55066;51.560;4.642;2022-12-20T05:19:50;9.66;99.99
68251;DHT22;55066;51.560;4.642;2022-12-20T05:22:16;9.78;99.99
68251;DHT22;55066;51.560;4.642;2022-12-20T05:25:09;9.63;99.99
68251;DHT22;55066;51.560;4.642;2022-12-20T05:27:55;9.71;99.99
68251;DHT22;55066;51.560;4.642;2022-12-20T05:30:24;9.62;99.99
68251;DHT22;55066;51.560;4.642;2022-12-20T05:32:50;9.68;99.99
68251;DHT22;55066;51.560;4.642;2022-12-20T05:35:15;9.68;99.99
68251;DHT22;55066;51.560;4.642;2022-12-20T05:37:42;9.68;99.99
68251;DHT22;55066;51.560;4.642;2022-12-20T05:40:14;9.71;99.99
68251;DHT22;55066;51.560;4.642;2022-12-20T05:42:40;9.72;99.99
68251;DHT22;55066;51.560;4.642;2022-12-20T05:45:06;9.72;99.99
68251;DHT22;55066;51.560;4.642;2022-12-20T05:47:42;9.72;99.99
68251;DHT22;55066;51.560;4.642;2022-12-20T05:50:10;9.68;99.99
68251;DHT22;55066;51.560;4.642;2022-12-20T05:52:55;9.71;99.99
68251;DHT22;55066;51.560;4.642;2022-12-20T05:55:21;9.72;99.99
68251;DHT22;55066;51.560;4.642;2022-12-20T05:57:47;9.61;99.99
68251;DHT22;55066;51.560;4.642;2022-12-20T06:00:18;9.63;99.99
68251;DHT22;55066;51.560;4.642;2022-12-20T06:02:47;9.66;99.99
68251;DHT22;55066;51.560;4.642;2022-12-20T06:05:12;9.73;99.99
68251;DHT22;55066;51.560;4.642;2022-12-20T06:07:38;9.69;99.99
68251;DHT22;55066;51.560;4.642;2022-12-20T06:10:04;9.68;99.99
68251;DHT22;55066;51.560;4.642;2022-12-20T06:12:42;9.69;99.99
68251;DHT22;55066;51.560;4.642;2022-12-20T06:15:08;9.79;99.99
68251;DHT22;55066;51.560;4.642;2022-12-20T06:17:37;9.65;99.99
68251;DHT22;55066;51.560;4.642;2022-12-20T06:20:02;9.79;99.99
68251;DHT22;55066;51.560;4.642;2022-12-20T06:22:28;9.83;99.99
68251;DHT22;55066;51.560;4.642;2022-12-20T06:24:55;9.79;99.99
68251;DHT22;55066;51.560;4.642;2022-12-20T06:27:25;9.75;99.99
68251;DHT22;55066;51.560;4.642;2022-12-20T06:30:06;9.76;99.99
68251;DHT22;55066;51.560;4.642;2022-12-20T06:32:44;9.86;99.99
68251;DHT22;55066;51.560;4.642;2022-12-20T06:35:09;9.92;99.99
68251;DHT22;55066;51.560;4.642;2022-12-20T06:37:36;9.75;99.99
68251;DHT22;55066;51.560;4.642;2022-12-20T06:40:02;9.79;99.99
68251;DHT22;55066;51.560;4.642;2022-12-20T06:42:29;9.73;99.99
68251;DHT22;55066;51.560;4.642;2022-12-20T06:44:54;9.82;99.99
68251;DHT22;55066;51.560;4.642;2022-12-20T06:47:20;9.78;99.99
68251;DHT22;55066;51.560;4.642;2022-12-20T06:49:45;9.76;99.99
68251;DHT22;55066;51.560;4.642;2022-12-20T06:52:18;9.73;99.99
68251;DHT22;55066;51.560;4.642;2022-12-20T06:54:47;9.73;99.99
68251;DHT22;55066;51.560;4.642;2022-12-20T06:57:12;9.87;99.99
68251;DHT22;55066;51.560;4.642;2022-12-20T06:59:39;9.75;99.99
68251;DHT22;55066;51.560;4.642;2022-12-20T07:02:05;9.81;99.99
68251;DHT22;55066;51.560;4.642;2022-12-20T07:04:30;9.78;99.99
68251;DHT22;55066;51.560;4.642;2022-12-20T07:06:56;9.72;99.99
68251;DHT22;55066;51.560;4.642;2022-12-20T07:09:22;9.68;99.99
68251;DHT22;55066;51.560;4.642;2022-12-20T07:11:48;9.78;99.99
68251;DHT22;55066;51.560;4.642;2022-12-20T07:14:13;9.66;99.99
68251;DHT22;55066;51.560;4.642;2022-12-20T07:16:39;9.66;99.99
68251;DHT22;55066;51.560;4.642;2022-12-20T07:19:10;9.66;99.99
68251;DHT22;55066;51.560;4.642;2022-12-20T07:21:36;9.65;99.99
68251;DHT22;55066;51.560;4.642;2022-12-20T07:24:01;9.63;99.99
68251;DHT22;55066;51.560;4.642;2022-12-20T07:26:27;9.63;99.99
68251;DHT22;55066;51.560;4.642;2022-12-20T07:28:53;9.55;99.99
68251;DHT22;55066;51.560;4.642;2022-12-20T07:31:18;9.54;99.99
68251;DHT22;55066;51.560;4.642;2022-12-20T07:33:44;9.55;99.99
68251;DHT22;55066;51.560;4.642;2022-12-20T07:36:11;9.63;99.99
68251;DHT22;55066;51.560;4.642;2022-12-20T07:38:36;9.59;99.99
68251;DHT22;55066;51.560;4.642;2022-12-20T07:41:07;9.65;99.99
68251;DHT22;55066;51.560;4.642;2022-12-20T07:43:34;9.62;99.99
68251;DHT22;55066;51.560;4.642;2022-12-20T07:45:59;9.65;99.99
68251;DHT22;55066;51.560;4.642;2022-12-20T07:48:25;9.61;99.99
68251;DHT22;55066;51.560;4.642;2022-12-20T07:50:52;9.65;99.99
68251;DHT22;55066;51.560;4.642;2022-12-20T07:53:20;9.78;99.99
68251;DHT22;55066;51.560;4.642;2022-12-20T07:55:46;9.79;99.99
68251;DHT22;55066;51.560;4.642;2022-12-20T07:58:13;9.79;99.99
68251;DHT22;55066;51.560;4.642;2022-12-20T08:00:39;9.83;99.99
68251;DHT22;55066;51.560;4.642;2022-12-20T08:03:21;10.00;99.99
68251;DHT22;55066;51.560;4.642;2022-12-20T08:05:50;9.83;99.99
68251;DHT22;55066;51.560;4.642;2022-12-20T08:08:17;9.81;99.99
68251;DHT22;55066;51.560;4.642;2022-12-20T08:10:44;9.69;99.99
68251;DHT22;55066;51.560;4.642;2022-12-20T08:13:11;9.72;99.99
68251;DHT22;55066;51.560;4.642;2022-12-20T08:15:36;9.68;99.99
68251;DHT22;55066;51.560;4.642;2022-12-20T08:18:02;9.76;99.99
68251;DHT22;55066;51.560;4.642;2022-12-20T08:20:28;9.71;99.99
68251;DHT22;55066;51.560;4.642;2022-12-20T08:22:53;9.75;99.99
68251;DHT22;55066;51.560;4.642;2022-12-20T08:25:19;9.65;99.99
68251;DHT22;55066;51.560;4.642;2022-12-20T08:27:45;9.55;99.99
68251;DHT22;55066;51.560;4.642;2022-12-20T08:30:11;9.61;99.99
68251;DHT22;55066;51.560;4.642;2022-12-20T08:32:37;9.52;99.99
68251;DHT22;55066;51.560;4.642;2022-12-20T08:35:02;9.51;99.99
68251;DHT22;55066;51.560;4.642;2022-12-20T08:37:28;9.58;99.99
68251;DHT22;55066;51.560;4.642;2022-12-20T08:39:53;9.52;99.99
68251;DHT22;55066;51.560;4.642;2022-12-20T08:42:19;9.59;99.99
68251;DHT22;55066;51.560;4.642;2022-12-20T08:44:45;9.63;99.99
68251;DHT22;55066;51.560;4.642;2022-12-20T08:47:10;9.61;99.99
68251;DHT22;55066;51.560;4.642;2022-12-20T08:49:35;9.55;99.99
68251;DHT22;55066;51.560;4.642;2022-12-20T08:52:01;9.54;99.99
68251;DHT22;55066;51.560;4.642;2022-12-20T08:54:27;9.56;99.99
68251;DHT22;55066;51.560;4.642;2022-12-20T08:56:52;9.62;99.99
68251;DHT22;55066;51.560;4.642;2022-12-20T08:59:18;9.62;99.99
68251;DHT22;55066;51.560;4.642;2022-12-20T09:01:43;9.59;99.99
68251;DHT22;55066;51.560;4.642;2022-12-20T09:04:10;9.63;99.99
68251;DHT22;55066;51.560;4.642;2022-12-20T09:06:36;9.71;99.99
68251;DHT22;55066;51.560;4.642;2022-12-20T09:09:03;9.66;99.99
68251;DHT22;55066;51.560;4.642;2022-12-20T09:11:28;9.68;99.99
68251;DHT22;55066;51.560;4.642;2022-12-20T09:13:56;9.66;99.99
68251;DHT22;55066;51.560;4.642;2022-12-20T09:16:26;9.68;99.99
68251;DHT22;55066;51.560;4.642;2022-12-20T09:18:54;9.65;99.99
68251;DHT22;55066;51.560;4.642;2022-12-20T09:21:20;9.69;99.99
68251;DHT22;55066;51.560;4.642;2022-12-20T09:23:48;9.72;99.99
68251;DHT22;55066;51.560;4.642;2022-12-20T09:26:15;9.72;99.99
68251;DHT22;55066;51.560;4.642;2022-12-20T09:28:41;9.68;99.99
68251;DHT22;55066;51.560;4.642;2022-12-20T09:31:10;9.72;99.99
68251;DHT22;55066;51.560;4.642;2022-12-20T09:33:36;9.71;99.99
68251;DHT22;55066;51.560;4.642;2022-12-20T09:36:03;9.72;99.99
68251;DHT22;55066;51.560;4.642;2022-12-20T09:38:35;9.78;99.99
68251;DHT22;55066;51.560;4.642;2022-12-20T09:41:07;9.73;99.99
68251;DHT22;55066;51.560;4.642;2022-12-20T09:43:33;9.73;99.99
68251;DHT22;55066;51.560;4.642;2022-12-20T09:46:03;9.75;99.99
68251;DHT22;55066;51.560;4.642;2022-12-20T09:48:39;9.71;99.99
68251;DHT22;55066;51.560;4.642;2022-12-20T09:51:19;9.78;99.99
68251;DHT22;55066;51.560;4.642;2022-12-20T09:54:20;9.82;99.99
68251;DHT22;55066;51.560;4.642;2022-12-20T09:59:50;9.82;99.99
68251;DHT22;55066;51.560;4.642;2022-12-20T10:02:22;9.81;99.99
68251;DHT22;55066;51.560;4.642;2022-12-20T10:04:53;9.78;99.99
68251;DHT22;55066;51.560;4.642;2022-12-20T10:07:45;9.79;99.99
68251;DHT22;55066;51.560;4.642;2022-12-20T10:13:36;9.79;99.99
68251;DHT22;55066;51.560;4.642;2022-12-20T10:16:39;9.87;99.99
68251;DHT22;55066;51.560;4.642;2022-12-20T10:22:25;9.86;99.99
68251;DHT22;55066;51.560;4.642;2022-12-20T10:25:21;9.85;99.99
68251;DHT22;55066;51.560;4.642;2022-12-20T10:27:59;9.85;99.99
68251;DHT22;55066;51.560;4.642;2022-12-20T10:30:28;9.87;99.99
68251;DHT22;55066;51.560;4.642;2022-12-20T10:33:01;9.90;99.99
68251;DHT22;55066;51.560;4.642;2022-12-20T10:35:40;9.92;99.99
68251;DHT22;55066;51.560;4.642;2022-12-20T10:38:13;9.89;99.99
68251;DHT22;55066;51.560;4.642;2022-12-20T10:41:04;9.89;99.99
68251;DHT22;55066;51.560;4.642;2022-12-20T10:43:44;9.93;99.99
68251;DHT22;55066;51.560;4.642;2022-12-20T10:46:16;9.90;99.99
68251;DHT22;55066;51.560;4.642;2022-12-20T10:48:51;9.89;99.99
68251;DHT22;55066;51.560;4.642;2022-12-20T10:51:24;9.89;99.99
68251;DHT22;55066;51.560;4.642;2022-12-20T10:54:09;9.96;99.99
68251;DHT22;55066;51.560;4.642;2022-12-20T10:56:58;9.92;99.99
68251;DHT22;55066;51.560;4.642;2022-12-20T10:59:33;9.96;99.99
68251;DHT22;55066;51.560;4.642;2022-12-20T11:02:02;9.93;99.99
68251;DHT22;55066;51.560;4.642;2022-12-20T11:05:02;9.90;99.99
68251;DHT22;55066;51.560;4.642;2022-12-20T11:07:30;9.92;99.99
68251;DHT22;55066;51.560;4.642;2022-12-20T11:10:01;9.92;99.99
68251;DHT22;55066;51.560;4.642;2022-12-20T11:12:27;9.93;99.99
68251;DHT22;55066;51.560;4.642;2022-12-20T11:15:18;9.96;99.99
68251;DHT22;55066;51.560;4.642;2022-12-20T11:17:50;9.94;99.99
68251;DHT22;55066;51.560;4.642;2022-12-20T11:29:45;9.93;99.99
68251;DHT22;55066;51.560;4.642;2022-12-20T11:32:25;10.02;99.99
68251;DHT22;55066;51.560;4.642;2022-12-20T11:40:32;10.00;99.99
68251;DHT22;55066;51.560;4.642;2022-12-20T11:54:05;10.10;99.99
68251;DHT22;55066;51.560;4.642;2022-12-20T11:56:41;10.10;99.99
68251;DHT22;55066;51.560;4.642;2022-12-20T11:59:39;10.09;99.99
68251;DHT22;55066;51.560;4.642;2022-12-20T12:02:35;10.07;99.99
68251;DHT22;55066;51.560;4.642;2022-12-20T12:05:40;10.10;99.99
68251;DHT22;55066;51.560;4.642;2022-12-20T12:08:02;10.11;99.99
68251;DHT22;55066;51.560;4.642;2022-12-20T12:10:41;10.07;99.99
68251;DHT22;55066;51.560;4.642;2022-12-20T12:13:28;10.02;99.99
68251;DHT22;55066;51.560;4.642;2022-12-20T12:16:49;10.06;99.99
68251;DHT22;55066;51.560;4.642;2022-12-20T12:18:59;10.06;99.99
68251;DHT22;55066;51.560;4.642;2022-12-20T12:21:27;10.07;99.99
68251;DHT22;55066;51.560;4.642;2022-12-20T12:24:17;10.00;99.99
68251;DHT22;55066;51.560;4.642;2022-12-20T12:26:44;10.04;99.99
68251;DHT22;55066;51.560;4.642;2022-12-20T12:29:13;10.02;99.99
68251;DHT22;55066;51.560;4.642;2022-12-20T12:46:21;10.00;99.99
68251;DHT22;55066;51.560;4.642;2022-12-20T12:49:14;10.03;99.99
68251;DHT22;55066;51.560;4.642;2022-12-20T12:51:54;10.02;99.99
68251;DHT22;55066;51.560;4.642;2022-12-20T12:54:25;10.09;99.99
68251;DHT22;55066;51.560;4.642;2022-12-20T12:56:53;10.06;99.99
68251;DHT22;55066;51.560;4.642;2022-12-20T13:05:03;10.04;99.99
68251;DHT22;55066;51.560;4.642;2022-12-20T13:07:47;9.97;99.99
68251;DHT22;55066;51.560;4.642;2022-12-20T13:13:01;10.00;99.99
68251;DHT22;55066;51.560;4.642;2022-12-20T13:18:19;9.96;99.99
68251;DHT22;55066;51.560;4.642;2022-12-20T13:27:12;9.93;99.99
68251;DHT22;55066;51.560;4.642;2022-12-20T13:41:50;9.89;99.99
68251;DHT22;55066;51.560;4.642;2022-12-20T13:44:42;9.90;99.99
68251;DHT22;55066;51.560;4.642;2022-12-20T13:47:27;9.90;99.99
68251;DHT22;55066;51.560;4.642;2022-12-20T13:49:54;9.86;99.99
68251;DHT22;55066;51.560;4.642;2022-12-20T13:52:28;9.86;99.99
68251;DHT22;55066;51.560;4.642;2022-12-20T13:55:01;9.87;99.99
68251;DHT22;55066;51.560;4.642;2022-12-20T13:57:39;9.94;99.99
68251;DHT22;55066;51.560;4.642;2022-12-20T14:00:23;9.89;99.99
68251;DHT22;55066;51.560;4.642;2022-12-20T14:02:50;9.87;99.99
68251;DHT22;55066;51.560;4.642;2022-12-20T14:05:22;9.87;99.99
68251;DHT22;55066;51.560;4.642;2022-12-20T14:08:00;9.83;99.99
68251;DHT22;55066;51.560;4.642;2022-12-20T14:10:31;9.83;99.99
68251;DHT22;55066;51.560;4.642;2022-12-20T14:12:57;9.89;99.99
68251;DHT22;55066;51.560;4.642;2022-12-20T14:15:31;9.86;99.99
68251;DHT22;55066;51.560;4.642;2022-12-20T14:18:04;9.87;99.99
68251;DHT22;55066;51.560;4.642;2022-12-20T14:20:32;9.85;99.99
68251;DHT22;55066;51.560;4.642;2022-12-20T14:26:27;9.78;99.99
68251;DHT22;55066;51.560;4.642;2022-12-20T14:28:57;9.79;99.99
68251;DHT22;55066;51.560;4.642;2022-12-20T14:31:44;9.76;99.99
68251;DHT22;55066;51.560;4.642;2022-12-20T14:36:45;9.75;99.99
68251;DHT22;55066;51.560;4.642;2022-12-20T14:39:29;9.75;99.99
68251;DHT22;55066;51.560;4.642;2022-12-20T14:42:02;9.73;99.99
68251;DHT22;55066;51.560;4.642;2022-12-20T14:44:37;9.73;99.99
68251;DHT22;55066;51.560;4.642;2022-12-20T14:47:23;9.72;99.99
68251;DHT22;55066;51.560;4.642;2022-12-20T14:49:57;9.71;99.99
68251;DHT22;55066;51.560;4.642;2022-12-20T14:52:33;9.69;99.99
68251;DHT22;55066;51.560;4.642;2022-12-20T14:55:05;9.69;99.99
68251;DHT22;55066;51.560;4.642;2022-12-20T15:13:35;9.66;99.99
68251;DHT22;55066;51.560;4.642;2022-12-20T15:16:12;9.65;99.99
68251;DHT22;55066;51.560;4.642;2022-12-20T15:18:38;9.66;99.99
68251;DHT22;55066;51.560;4.642;2022-12-20T15:21:09;9.63;99.99
68251;DHT22;55066;51.560;4.642;2022-12-20T15:23:42;9.63;99.99
68251;DHT22;55066;51.560;4.642;2022-12-20T15:26:14;9.68;99.99
68251;DHT22;55066;51.560;4.642;2022-12-20T15:28:40;9.61;99.99
68251;DHT22;55066;51.560;4.642;2022-12-20T15:31:05;9.63;99.99
68251;DHT22;55066;51.560;4.642;2022-12-20T15:33:36;9.68;99.99
68251;DHT22;55066;51.560;4.642;2022-12-20T15:36:02;9.62;99.99
68251;DHT22;55066;51.560;4.642;2022-12-20T15:38:28;9.61;99.99
68251;DHT22;55066;51.560;4.642;2022-12-20T15:40:55;9.65;99.99
68251;DHT22;55066;51.560;4.642;2022-12-20T15:43:24;9.65;99.99
68251;DHT22;55066;51.560;4.642;2022-12-20T15:45:52;9.61;99.99
68251;DHT22;55066;51.560;4.642;2022-12-20T15:48:20;9.56;99.99
68251;DHT22;55066;51.560;4.642;2022-12-20T15:50:52;9.58;99.99
68251;DHT22;55066;51.560;4.642;2022-12-20T15:53:21;9.59;99.99
68251;DHT22;55066;51.560;4.642;2022-12-20T15:55:52;9.61;99.99
68251;DHT22;55066;51.560;4.642;2022-12-20T15:58:18;9.58;99.99
68251;DHT22;55066;51.560;4.642;2022-12-20T16:00:43;9.62;99.99
68251;DHT22;55066;51.560;4.642;2022-12-20T16:03:21;9.56;99.99
68251;DHT22;55066;51.560;4.642;2022-12-20T16:05:47;9.59;99.99
68251;DHT22;55066;51.560;4.642;2022-12-20T16:08:14;9.59;99.99
68251;DHT22;55066;51.560;4.642;2022-12-20T16:10:41;9.56;99.99
68251;DHT22;55066;51.560;4.642;2022-12-20T16:13:12;9.58;99.99
68251;DHT22;55066;51.560;4.642;2022-12-20T16:15:38;9.58;99.99
68251;DHT22;55066;51.560;4.642;2022-12-20T16:18:03;9.52;99.99
68251;DHT22;55066;51.560;4.642;2022-12-20T16:20:29;9.55;99.99
68251;DHT22;55066;51.560;4.642;2022-12-20T16:22:55;9.58;99.99
68251;DHT22;55066;51.560;4.642;2022-12-20T16:25:26;9.55;99.99
68251;DHT22;55066;51.560;4.642;2022-12-20T16:27:53;9.55;99.99
68251;DHT22;55066;51.560;4.642;2022-12-20T16:30:19;9.55;99.99
68251;DHT22;55066;51.560;4.642;2022-12-20T16:32:44;9.52;99.99
68251;DHT22;55066;51.560;4.642;2022-12-20T16:35:26;9.51;99.99
68251;DHT22;55066;51.560;4.642;2022-12-20T16:37:53;9.54;99.99
68251;DHT22;55066;51.560;4.642;2022-12-20T16:40:21;9.55;99.99
68251;DHT22;55066;51.560;4.642;2022-12-20T16:42:47;9.55;99.99
68251;DHT22;55066;51.560;4.642;2022-12-20T16:45:18;9.49;99.99
68251;DHT22;55066;51.560;4.642;2022-12-20T16:47:45;9.51;99.99
68251;DHT22;55066;51.560;4.642;2022-12-20T16:50:11;9.46;99.99
68251;DHT22;55066;51.560;4.642;2022-12-20T16:52:37;9.49;99.99
68251;DHT22;55066;51.560;4.642;2022-12-20T16:55:03;9.46;99.99
68251;DHT22;55066;51.560;4.642;2022-12-20T16:57:29;9.45;99.99
68251;DHT22;55066;51.560;4.642;2022-12-20T16:59:54;9.52;99.99
68251;DHT22;55066;51.560;4.642;2022-12-20T17:02:27;9.46;99.99
68251;DHT22;55066;51.560;4.642;2022-12-20T17:04:52;9.49;99.99
68251;DHT22;55066;51.560;4.642;2022-12-20T17:07:18;9.45;99.99
68251;DHT22;55066;51.560;4.642;2022-12-20T17:09:43;9.44;99.99
68251;DHT22;55066;51.560;4.642;2022-12-20T17:12:20;9.44;99.99
68251;DHT22;55066;51.560;4.642;2022-12-20T17:14:46;9.42;99.99
68251;DHT22;55066;51.560;4.642;2022-12-20T17:17:13;9.46;99.99
68251;DHT22;55066;51.560;4.642;2022-12-20T17:19:38;9.42;99.99
68251;DHT22;55066;51.560;4.642;2022-12-20T17:22:05;9.44;99.99
68251;DHT22;55066;51.560;4.642;2022-12-20T17:24:30;9.42;99.99
68251;DHT22;55066;51.560;4.642;2022-12-20T17:26:56;9.44;99.99
68251;DHT22;55066;51.560;4.642;2022-12-20T17:29:21;9.44;99.99
68251;DHT22;55066;51.560;4.642;2022-12-20T17:31:47;9.39;99.99
68251;DHT22;55066;51.560;4.642;2022-12-20T17:34:18;9.42;99.99
68251;DHT22;55066;51.560;4.642;2022-12-20T17:36:44;9.38;99.99
68251;DHT22;55066;51.560;4.642;2022-12-20T17:39:10;9.39;99.99
68251;DHT22;55066;51.560;4.642;2022-12-20T17:41:35;9.44;99.99
68251;DHT22;55066;51.560;4.642;2022-12-20T17:44:02;9.38;99.99
68251;DHT22;55066;51.560;4.642;2022-12-20T17:46:28;9.39;99.99
68251;DHT22;55066;51.560;4.642;2022-12-20T17:48:57;9.41;99.99
68251;DHT22;55066;51.560;4.642;2022-12-20T17:51:28;9.42;99.99
68251;DHT22;55066;51.560;4.642;2022-12-20T17:53:58;9.44;99.99
68251;DHT22;55066;51.560;4.642;2022-12-20T17:56:26;9.41;99.99
68251;DHT22;55066;51.560;4.642;2022-12-20T17:58:53;9.41;99.99
68251;DHT22;55066;51.560;4.642;2022-12-20T18:01:23;9.41;99.99
68251;DHT22;55066;51.560;4.642;2022-12-20T18:03:50;9.39;99.99